sensor_id;sensor_type;location;lat;lon;timestamp;P1;durP1;ratioP1;P2;durP2;ratioP2
12846;SDS011;6492;48.128;8.320;2023-04-15T00:03:52;1.80;;;1.30;;
12846;SDS011;6492;48.128;8.320;2023-04-15T00:07:54;2.10;;;1.57;;
12846;SDS011;6492;48.128;8.320;2023-04-15T00:11:56;3.63;;;1.93;;
12846;SDS011;6492;48.128;8.320;2023-04-15T00:15:59;2.07;;;1.60;;
12846;SDS011;6492;48.128;8.320;2023-04-15T00:20:01;2.73;;;1.70;;
12846;SDS011;6492;48.128;8.320;2023-04-15T00:24:05;2.70;;;1.80;;
12846;SDS011;6492;48.128;8.320;2023-04-15T00:28:07;4.10;;;1.60;;
12846;SDS011;6492;48.128;8.320;2023-04-15T00:32:10;5.73;;;1.93;;
12846;SDS011;6492;48.128;8.320;2023-04-15T00:36:12;6.57;;;2.07;;
12846;SDS011;6492;48.128;8.320;2023-04-15T00:40:14;4.10;;;2.37;;
12846;SDS011;6492;48.128;8.320;2023-04-15T00:44:18;4.07;;;2.00;;
12846;SDS011;6492;48.128;8.320;2023-04-15T00:48:29;3.80;;;1.80;;
12846;SDS011;6492;48.128;8.320;2023-04-15T00:52:32;2.90;;;1.43;;
12846;SDS011;6492;48.128;8.320;2023-04-15T00:56:34;2.47;;;1.30;;
12846;SDS011;6492;48.128;8.320;2023-04-15T01:00:37;2.73;;;1.33;;
12846;SDS011;6492;48.128;8.320;2023-04-15T01:04:41;2.10;;;1.40;;
12846;SDS011;6492;48.128;8.320;2023-04-15T01:08:43;2.90;;;1.80;;
12846;SDS011;6492;48.128;8.320;2023-04-15T01:12:45;2.93;;;2.17;;
12846;SDS011;6492;48.128;8.320;2023-04-15T01:16:47;2.30;;;1.30;;
12846;SDS011;6492;48.128;8.320;2023-04-15T01:20:50;2.10;;;1.43;;
12846;SDS011;6492;48.128;8.320;2023-04-15T01:24:54;1.67;;;1.43;;
12846;SDS011;6492;48.128;8.320;2023-04-15T01:29:05;2.47;;;1.50;;
12846;SDS011;6492;48.128;8.320;2023-04-15T01:33:07;3.50;;;1.37;;
12846;SDS011;6492;48.128;8.320;2023-04-15T01:37:09;3.53;;;1.30;;
12846;SDS011;6492;48.128;8.320;2023-04-15T01:41:12;2.07;;;1.37;;
12846;SDS011;6492;48.128;8.320;2023-04-15T01:45:15;1.70;;;1.47;;
12846;SDS011;6492;48.128;8.320;2023-04-15T01:49:17;2.80;;;1.50;;
12846;SDS011;6492;48.128;8.320;2023-04-15T01:53:19;1.90;;;1.20;;
12846;SDS011;6492;48.128;8.320;2023-04-15T01:57:20;2.50;;;1.20;;
12846;SDS011;6492;48.128;8.320;2023-04-15T02:01:23;3.57;;;1.40;;
12846;SDS011;6492;48.128;8.320;2023-04-15T02:05:25;1.50;;;1.20;;
12846;SDS011;6492;48.128;8.320;2023-04-15T02:09:27;1.20;;;1.10;;
12846;SDS011;6492;48.128;8.320;2023-04-15T02:13:30;1.20;;;0.90;;
12846;SDS011;6492;48.128;8.320;2023-04-15T02:17:34;1.30;;;1.00;;
12846;SDS011;6492;48.128;8.320;2023-04-15T02:21:36;1.33;;;1.23;;
12846;SDS011;6492;48.128;8.320;2023-04-15T02:25:38;0.93;;;0.90;;
12846;SDS011;6492;48.128;8.320;2023-04-15T02:29:40;1.60;;;1.00;;
12846;SDS011;6492;48.128;8.320;2023-04-15T02:33:44;2.00;;;1.00;;
12846;SDS011;6492;48.128;8.320;2023-04-15T02:37:46;2.47;;;1.20;;
12846;SDS011;6492;48.128;8.320;2023-04-15T02:41:48;1.50;;;1.40;;
12846;SDS011;6492;48.128;8.320;2023-04-15T02:45:51;1.77;;;1.30;;
12846;SDS011;6492;48.128;8.320;2023-04-15T02:49:54;1.20;;;1.03;;
12846;SDS011;6492;48.128;8.320;2023-04-15T02:53:57;1.83;;;1.10;;
12846;SDS011;6492;48.128;8.320;2023-04-15T02:57:59;1.27;;;1.10;;
12846;SDS011;6492;48.128;8.320;2023-04-15T03:02:01;2.30;;;1.30;;
12846;SDS011;6492;48.128;8.320;2023-04-15T03:06:04;2.10;;;1.07;;
12846;SDS011;6492;48.128;8.320;2023-04-15T03:10:08;0.97;;;0.93;;
12846;SDS011;6492;48.128;8.320;2023-04-15T03:14:10;1.83;;;1.20;;
12846;SDS011;6492;48.128;8.320;2023-04-15T03:18:12;6.13;;;1.70;;
12846;SDS011;6492;48.128;8.320;2023-04-15T03:22:16;4.27;;;1.70;;
12846;SDS011;6492;48.128;8.320;2023-04-15T03:26:25;2.33;;;1.37;;
12846;SDS011;6492;48.128;8.320;2023-04-15T03:30:28;2.93;;;1.10;;
12846;SDS011;6492;48.128;8.320;2023-04-15T03:34:30;1.93;;;1.23;;
12846;SDS011;6492;48.128;8.320;2023-04-15T03:38:33;1.43;;;1.10;;
12846;SDS011;6492;48.128;8.320;2023-04-15T03:42:35;1.80;;;1.40;;
12846;SDS011;6492;48.128;8.320;2023-04-15T03:46:36;4.47;;;1.70;;
12846;SDS011;6492;48.128;8.320;2023-04-15T03:50:38;1.37;;;1.27;;
12846;SDS011;6492;48.128;8.320;2023-04-15T03:54:41;2.67;;;1.30;;
12846;SDS011;6492;48.128;8.320;2023-04-15T03:58:43;3.90;;;1.53;;
12846;SDS011;6492;48.128;8.320;2023-04-15T04:02:45;2.17;;;1.53;;
12846;SDS011;6492;48.128;8.320;2023-04-15T04:06:47;1.17;;;1.07;;
12846;SDS011;6492;48.128;8.320;2023-04-15T04:10:50;2.57;;;1.40;;
12846;SDS011;6492;48.128;8.320;2023-04-15T04:14:52;1.90;;;1.10;;
12846;SDS011;6492;48.128;8.320;2023-04-15T04:18:54;2.53;;;1.10;;
12846;SDS011;6492;48.128;8.320;2023-04-15T04:22:56;2.17;;;1.00;;
12846;SDS011;6492;48.128;8.320;2023-04-15T04:26:59;2.00;;;1.30;;
12846;SDS011;6492;48.128;8.320;2023-04-15T04:31:01;3.13;;;1.20;;
12846;SDS011;6492;48.128;8.320;2023-04-15T04:35:03;3.13;;;1.23;;
12846;SDS011;6492;48.128;8.320;2023-04-15T04:39:06;0.97;;;0.87;;
12846;SDS011;6492;48.128;8.320;2023-04-15T04:43:09;1.37;;;1.23;;
12846;SDS011;6492;48.128;8.320;2023-04-15T04:47:11;0.83;;;0.83;;
12846;SDS011;6492;48.128;8.320;2023-04-15T04:51:13;1.20;;;1.10;;
12846;SDS011;6492;48.128;8.320;2023-04-15T04:55:15;2.63;;;1.33;;
12846;SDS011;6492;48.128;8.320;2023-04-15T04:59:18;1.87;;;0.97;;
12846;SDS011;6492;48.128;8.320;2023-04-15T05:03:20;2.23;;;1.00;;
12846;SDS011;6492;48.128;8.320;2023-04-15T05:07:22;2.43;;;1.20;;
12846;SDS011;6492;48.128;8.320;2023-04-15T05:11:23;2.13;;;1.00;;
12846;SDS011;6492;48.128;8.320;2023-04-15T05:15:27;2.47;;;1.10;;
12846;SDS011;6492;48.128;8.320;2023-04-15T05:19:28;1.60;;;1.00;;
12846;SDS011;6492;48.128;8.320;2023-04-15T05:23:30;2.30;;;1.30;;
12846;SDS011;6492;48.128;8.320;2023-04-15T05:27:33;1.00;;;0.70;;
12846;SDS011;6492;48.128;8.320;2023-04-15T05:31:37;1.77;;;1.00;;
12846;SDS011;6492;48.128;8.320;2023-04-15T05:35:39;2.40;;;1.07;;
12846;SDS011;6492;48.128;8.320;2023-04-15T05:39:41;1.77;;;1.00;;
12846;SDS011;6492;48.128;8.320;2023-04-15T05:43:43;1.10;;;1.00;;
12846;SDS011;6492;48.128;8.320;2023-04-15T05:47:49;2.37;;;1.37;;
12846;SDS011;6492;48.128;8.320;2023-04-15T05:51:53;2.23;;;1.90;;
12846;SDS011;6492;48.128;8.320;2023-04-15T05:55:55;2.17;;;1.57;;
12846;SDS011;6492;48.128;8.320;2023-04-15T05:59:57;2.47;;;1.50;;
12846;SDS011;6492;48.128;8.320;2023-04-15T06:04:01;1.87;;;1.73;;
12846;SDS011;6492;48.128;8.320;2023-04-15T06:08:03;3.40;;;1.80;;
12846;SDS011;6492;48.128;8.320;2023-04-15T06:12:09;3.17;;;2.07;;
12846;SDS011;6492;48.128;8.320;2023-04-15T06:16:12;2.20;;;1.63;;
12846;SDS011;6492;48.128;8.320;2023-04-15T06:20:15;1.60;;;1.50;;
12846;SDS011;6492;48.128;8.320;2023-04-15T06:28:23;2.00;;;1.80;;
12846;SDS011;6492;48.128;8.320;2023-04-15T06:32:24;25.57;;;12.77;;
12846;SDS011;6492;48.128;8.320;2023-04-15T06:36:28;103.53;;;42.80;;
12846;SDS011;6492;48.128;8.320;2023-04-15T06:40:36;191.63;;;67.83;;
12846;SDS011;6492;48.128;8.320;2023-04-15T06:48:43;55.70;;;23.10;;
12846;SDS011;6492;48.128;8.320;2023-04-15T06:52:54;17.97;;;8.17;;
12846;SDS011;6492;48.128;8.320;2023-04-15T06:56:57;8.47;;;3.97;;
12846;SDS011;6492;48.128;8.320;2023-04-15T07:01:05;5.93;;;2.93;;
12846;SDS011;6492;48.128;8.320;2023-04-15T07:05:06;6.23;;;2.73;;
12846;SDS011;6492;48.128;8.320;2023-04-15T07:09:10;4.10;;;2.50;;
12846;SDS011;6492;48.128;8.320;2023-04-15T07:13:12;4.53;;;2.53;;
12846;SDS011;6492;48.128;8.320;2023-04-15T07:17:14;2.97;;;2.10;;
12846;SDS011;6492;48.128;8.320;2023-04-15T07:21:22;2.80;;;1.60;;
12846;SDS011;6492;48.128;8.320;2023-04-15T07:25:37;2.37;;;1.67;;
12846;SDS011;6492;48.128;8.320;2023-04-15T07:29:38;2.90;;;2.50;;
12846;SDS011;6492;48.128;8.320;2023-04-15T07:38:11;3.80;;;2.10;;
12846;SDS011;6492;48.128;8.320;2023-04-15T07:46:26;2.33;;;1.80;;
12846;SDS011;6492;48.128;8.320;2023-04-15T07:50:28;4.80;;;1.93;;
12846;SDS011;6492;48.128;8.320;2023-04-15T07:54:40;2.57;;;1.60;;
12846;SDS011;6492;48.128;8.320;2023-04-15T07:58:43;2.57;;;1.37;;
12846;SDS011;6492;48.128;8.320;2023-04-15T08:02:45;5.93;;;2.17;;
12846;SDS011;6492;48.128;8.320;2023-04-15T08:10:58;2.17;;;1.60;;
12846;SDS011;6492;48.128;8.320;2023-04-15T08:15:01;2.40;;;1.50;;
12846;SDS011;6492;48.128;8.320;2023-04-15T08:19:03;6.50;;;2.77;;
12846;SDS011;6492;48.128;8.320;2023-04-15T08:23:05;3.10;;;2.10;;
12846;SDS011;6492;48.128;8.320;2023-04-15T08:27:07;3.43;;;1.40;;
12846;SDS011;6492;48.128;8.320;2023-04-15T08:31:10;4.00;;;1.90;;
12846;SDS011;6492;48.128;8.320;2023-04-15T08:35:27;3.03;;;1.47;;
12846;SDS011;6492;48.128;8.320;2023-04-15T08:39:29;3.20;;;1.37;;
12846;SDS011;6492;48.128;8.320;2023-04-15T08:43:32;2.43;;;1.60;;
12846;SDS011;6492;48.128;8.320;2023-04-15T08:47:36;1.67;;;1.50;;
12846;SDS011;6492;48.128;8.320;2023-04-15T08:55:50;1.97;;;1.30;;
12846;SDS011;6492;48.128;8.320;2023-04-15T09:03:59;2.83;;;1.40;;
12846;SDS011;6492;48.128;8.320;2023-04-15T09:08:05;2.07;;;1.10;;
12846;SDS011;6492;48.128;8.320;2023-04-15T09:12:07;2.33;;;1.10;;
12846;SDS011;6492;48.128;8.320;2023-04-15T09:16:09;4.97;;;2.03;;
12846;SDS011;6492;48.128;8.320;2023-04-15T09:20:13;2.60;;;1.10;;
12846;SDS011;6492;48.128;8.320;2023-04-15T09:24:17;4.43;;;1.50;;
12846;SDS011;6492;48.128;8.320;2023-04-15T09:28:24;2.87;;;1.80;;
12846;SDS011;6492;48.128;8.320;2023-04-15T09:32:26;3.33;;;1.40;;
12846;SDS011;6492;48.128;8.320;2023-04-15T09:36:51;3.47;;;1.47;;
12846;SDS011;6492;48.128;8.320;2023-04-15T09:40:55;1.97;;;1.23;;
12846;SDS011;6492;48.128;8.320;2023-04-15T09:45:06;3.80;;;1.43;;
12846;SDS011;6492;48.128;8.320;2023-04-15T09:49:17;2.37;;;1.13;;
12846;SDS011;6492;48.128;8.320;2023-04-15T09:53:24;3.90;;;1.60;;
12846;SDS011;6492;48.128;8.320;2023-04-15T10:02:08;2.07;;;1.30;;
12846;SDS011;6492;48.128;8.320;2023-04-15T10:06:17;4.47;;;1.73;;
12846;SDS011;6492;48.128;8.320;2023-04-15T10:10:26;2.77;;;1.40;;
12846;SDS011;6492;48.128;8.320;2023-04-15T10:14:28;3.77;;;1.67;;
12846;SDS011;6492;48.128;8.320;2023-04-15T10:18:53;3.60;;;1.40;;
12846;SDS011;6492;48.128;8.320;2023-04-15T10:22:55;2.00;;;1.30;;
12846;SDS011;6492;48.128;8.320;2023-04-15T10:26:59;3.33;;;1.70;;
12846;SDS011;6492;48.128;8.320;2023-04-15T10:31:18;3.13;;;1.73;;
12846;SDS011;6492;48.128;8.320;2023-04-15T10:35:21;2.53;;;1.50;;
12846;SDS011;6492;48.128;8.320;2023-04-15T10:39:40;1.50;;;1.40;;
12846;SDS011;6492;48.128;8.320;2023-04-15T10:43:51;2.90;;;1.40;;
12846;SDS011;6492;48.128;8.320;2023-04-15T10:47:54;3.13;;;1.73;;
12846;SDS011;6492;48.128;8.320;2023-04-15T10:51:57;2.50;;;1.60;;
12846;SDS011;6492;48.128;8.320;2023-04-15T10:55:59;5.60;;;1.70;;
12846;SDS011;6492;48.128;8.320;2023-04-15T11:00:09;4.00;;;1.27;;
12846;SDS011;6492;48.128;8.320;2023-04-15T11:04:12;4.03;;;1.40;;
12846;SDS011;6492;48.128;8.320;2023-04-15T11:08:14;2.43;;;1.67;;
12846;SDS011;6492;48.128;8.320;2023-04-15T11:12:16;2.03;;;1.47;;
12846;SDS011;6492;48.128;8.320;2023-04-15T11:16:21;3.07;;;1.50;;
12846;SDS011;6492;48.128;8.320;2023-04-15T11:20:23;2.60;;;1.80;;
12846;SDS011;6492;48.128;8.320;2023-04-15T11:24:26;2.73;;;1.93;;
12846;SDS011;6492;48.128;8.320;2023-04-15T11:28:28;4.83;;;2.30;;
12846;SDS011;6492;48.128;8.320;2023-04-15T11:36:35;3.93;;;2.50;;
12846;SDS011;6492;48.128;8.320;2023-04-15T11:40:36;3.13;;;2.00;;
12846;SDS011;6492;48.128;8.320;2023-04-15T11:44:39;3.03;;;2.40;;
12846;SDS011;6492;48.128;8.320;2023-04-15T11:48:42;3.20;;;2.20;;
12846;SDS011;6492;48.128;8.320;2023-04-15T11:52:52;2.60;;;2.07;;
12846;SDS011;6492;48.128;8.320;2023-04-15T11:56:54;2.80;;;2.00;;
12846;SDS011;6492;48.128;8.320;2023-04-15T12:00:58;4.27;;;2.10;;
12846;SDS011;6492;48.128;8.320;2023-04-15T12:05:17;2.60;;;1.80;;
12846;SDS011;6492;48.128;8.320;2023-04-15T12:09:19;4.17;;;2.10;;
12846;SDS011;6492;48.128;8.320;2023-04-15T12:13:21;2.43;;;2.00;;
12846;SDS011;6492;48.128;8.320;2023-04-15T12:17:23;2.60;;;1.77;;
12846;SDS011;6492;48.128;8.320;2023-04-15T12:21:27;2.20;;;1.70;;
12846;SDS011;6492;48.128;8.320;2023-04-15T12:25:35;1.83;;;1.63;;
12846;SDS011;6492;48.128;8.320;2023-04-15T12:29:37;3.97;;;1.93;;
12846;SDS011;6492;48.128;8.320;2023-04-15T12:33:40;4.73;;;2.00;;
12846;SDS011;6492;48.128;8.320;2023-04-15T12:37:43;3.57;;;1.73;;
12846;SDS011;6492;48.128;8.320;2023-04-15T12:41:44;3.97;;;1.77;;
12846;SDS011;6492;48.128;8.320;2023-04-15T12:45:46;2.80;;;1.93;;
12846;SDS011;6492;48.128;8.320;2023-04-15T12:49:48;4.20;;;1.83;;
12846;SDS011;6492;48.128;8.320;2023-04-15T12:53:51;2.50;;;1.87;;
12846;SDS011;6492;48.128;8.320;2023-04-15T12:57:53;4.00;;;1.90;;
12846;SDS011;6492;48.128;8.320;2023-04-15T13:01:55;3.47;;;1.60;;
12846;SDS011;6492;48.128;8.320;2023-04-15T13:05:59;2.33;;;1.60;;
12846;SDS011;6492;48.128;8.320;2023-04-15T13:10:06;4.53;;;1.80;;
12846;SDS011;6492;48.128;8.320;2023-04-15T13:14:09;2.90;;;1.60;;
12846;SDS011;6492;48.128;8.320;2023-04-15T13:18:11;2.67;;;1.70;;
12846;SDS011;6492;48.128;8.320;2023-04-15T13:22:13;4.53;;;1.83;;
12846;SDS011;6492;48.128;8.320;2023-04-15T13:26:16;6.63;;;2.90;;
12846;SDS011;6492;48.128;8.320;2023-04-15T13:30:19;4.67;;;1.93;;
12846;SDS011;6492;48.128;8.320;2023-04-15T13:34:35;4.63;;;2.37;;
12846;SDS011;6492;48.128;8.320;2023-04-15T13:38:43;4.97;;;2.10;;
12846;SDS011;6492;48.128;8.320;2023-04-15T13:47:03;5.07;;;2.70;;
12846;SDS011;6492;48.128;8.320;2023-04-15T13:51:05;4.43;;;2.17;;
12846;SDS011;6492;48.128;8.320;2023-04-15T13:55:07;5.20;;;3.90;;
12846;SDS011;6492;48.128;8.320;2023-04-15T13:59:11;2.77;;;2.10;;
12846;SDS011;6492;48.128;8.320;2023-04-15T14:03:13;3.50;;;1.97;;
12846;SDS011;6492;48.128;8.320;2023-04-15T14:07:15;4.57;;;2.60;;
12846;SDS011;6492;48.128;8.320;2023-04-15T14:11:17;3.20;;;2.57;;
12846;SDS011;6492;48.128;8.320;2023-04-15T14:15:20;3.13;;;2.50;;
12846;SDS011;6492;48.128;8.320;2023-04-15T14:19:22;6.33;;;4.17;;
12846;SDS011;6492;48.128;8.320;2023-04-15T14:23:24;2.90;;;2.43;;
12846;SDS011;6492;48.128;8.320;2023-04-15T14:32:04;3.47;;;1.97;;
12846;SDS011;6492;48.128;8.320;2023-04-15T14:36:08;5.07;;;2.93;;
12846;SDS011;6492;48.128;8.320;2023-04-15T14:40:12;3.17;;;2.00;;
12846;SDS011;6492;48.128;8.320;2023-04-15T14:44:14;2.07;;;1.70;;
12846;SDS011;6492;48.128;8.320;2023-04-15T14:48:24;4.70;;;1.80;;
12846;SDS011;6492;48.128;8.320;2023-04-15T14:52:26;3.73;;;1.90;;
12846;SDS011;6492;48.128;8.320;2023-04-15T14:56:28;1.40;;;1.30;;
12846;SDS011;6492;48.128;8.320;2023-04-15T15:00:30;1.53;;;1.10;;
12846;SDS011;6492;48.128;8.320;2023-04-15T15:04:35;1.40;;;1.27;;
12846;SDS011;6492;48.128;8.320;2023-04-15T15:08:37;1.40;;;1.10;;
12846;SDS011;6492;48.128;8.320;2023-04-15T15:12:38;1.10;;;1.03;;
12846;SDS011;6492;48.128;8.320;2023-04-15T15:16:40;1.23;;;1.00;;
12846;SDS011;6492;48.128;8.320;2023-04-15T15:20:44;1.87;;;1.20;;
12846;SDS011;6492;48.128;8.320;2023-04-15T15:24:45;3.43;;;1.50;;
12846;SDS011;6492;48.128;8.320;2023-04-15T15:28:47;3.43;;;1.90;;
12846;SDS011;6492;48.128;8.320;2023-04-15T15:32:50;2.50;;;1.80;;
12846;SDS011;6492;48.128;8.320;2023-04-15T15:41:33;2.67;;;1.90;;
12846;SDS011;6492;48.128;8.320;2023-04-15T15:45:42;3.90;;;2.17;;
12846;SDS011;6492;48.128;8.320;2023-04-15T15:49:44;2.70;;;2.10;;
12846;SDS011;6492;48.128;8.320;2023-04-15T15:58:23;4.27;;;1.90;;
12846;SDS011;6492;48.128;8.320;2023-04-15T16:02:26;4.13;;;2.60;;
12846;SDS011;6492;48.128;8.320;2023-04-15T16:06:30;6.17;;;3.73;;
12846;SDS011;6492;48.128;8.320;2023-04-15T16:15:17;11.37;;;6.20;;
12846;SDS011;6492;48.128;8.320;2023-04-15T16:19:19;3.40;;;2.40;;
12846;SDS011;6492;48.128;8.320;2023-04-15T16:23:28;7.00;;;4.13;;
12846;SDS011;6492;48.128;8.320;2023-04-15T16:27:40;4.17;;;3.60;;
12846;SDS011;6492;48.128;8.320;2023-04-15T16:31:49;4.73;;;3.17;;
12846;SDS011;6492;48.128;8.320;2023-04-15T16:35:51;8.30;;;3.50;;
12846;SDS011;6492;48.128;8.320;2023-04-15T16:39:59;5.33;;;3.97;;
12846;SDS011;6492;48.128;8.320;2023-04-15T16:44:02;4.63;;;3.93;;
12846;SDS011;6492;48.128;8.320;2023-04-15T16:57:23;4.13;;;2.60;;
12846;SDS011;6492;48.128;8.320;2023-04-15T17:01:26;3.70;;;2.57;;
12846;SDS011;6492;48.128;8.320;2023-04-15T17:05:28;4.90;;;2.90;;
12846;SDS011;6492;48.128;8.320;2023-04-15T17:09:30;6.00;;;3.20;;
12846;SDS011;6492;48.128;8.320;2023-04-15T17:13:32;4.30;;;2.53;;
12846;SDS011;6492;48.128;8.320;2023-04-15T17:17:35;4.57;;;2.97;;
12846;SDS011;6492;48.128;8.320;2023-04-15T17:21:37;4.10;;;2.90;;
12846;SDS011;6492;48.128;8.320;2023-04-15T17:25:44;3.83;;;3.00;;
12846;SDS011;6492;48.128;8.320;2023-04-15T17:29:46;5.60;;;2.90;;
12846;SDS011;6492;48.128;8.320;2023-04-15T17:33:55;3.60;;;2.87;;
12846;SDS011;6492;48.128;8.320;2023-04-15T17:38:04;6.30;;;3.30;;
12846;SDS011;6492;48.128;8.320;2023-04-15T17:42:22;5.27;;;3.40;;
12846;SDS011;6492;48.128;8.320;2023-04-15T17:46:25;6.87;;;3.60;;
12846;SDS011;6492;48.128;8.320;2023-04-15T17:50:39;4.40;;;3.13;;
12846;SDS011;6492;48.128;8.320;2023-04-15T17:54:44;6.03;;;5.30;;
12846;SDS011;6492;48.128;8.320;2023-04-15T17:58:46;4.93;;;2.60;;
12846;SDS011;6492;48.128;8.320;2023-04-15T18:02:56;3.97;;;2.70;;
12846;SDS011;6492;48.128;8.320;2023-04-15T18:06:59;4.17;;;2.60;;
12846;SDS011;6492;48.128;8.320;2023-04-15T18:11:01;5.00;;;2.37;;
12846;SDS011;6492;48.128;8.320;2023-04-15T18:15:04;4.17;;;2.87;;
12846;SDS011;6492;48.128;8.320;2023-04-15T18:19:06;3.67;;;2.40;;
12846;SDS011;6492;48.128;8.320;2023-04-15T18:23:09;5.43;;;2.50;;
12846;SDS011;6492;48.128;8.320;2023-04-15T18:27:11;3.27;;;2.50;;
12846;SDS011;6492;48.128;8.320;2023-04-15T18:31:13;6.37;;;2.20;;
12846;SDS011;6492;48.128;8.320;2023-04-15T18:35:14;3.77;;;2.30;;
12846;SDS011;6492;48.128;8.320;2023-04-15T18:39:19;3.37;;;2.67;;
12846;SDS011;6492;48.128;8.320;2023-04-15T18:43:21;5.13;;;2.20;;
12846;SDS011;6492;48.128;8.320;2023-04-15T18:47:23;5.73;;;2.40;;
12846;SDS011;6492;48.128;8.320;2023-04-15T18:51:25;2.80;;;2.17;;
12846;SDS011;6492;48.128;8.320;2023-04-15T18:55:29;3.43;;;2.33;;
12846;SDS011;6492;48.128;8.320;2023-04-15T18:59:30;4.57;;;2.33;;
12846;SDS011;6492;48.128;8.320;2023-04-15T19:03:32;2.73;;;2.00;;
12846;SDS011;6492;48.128;8.320;2023-04-15T19:07:34;4.70;;;2.60;;
12846;SDS011;6492;48.128;8.320;2023-04-15T19:11:38;3.77;;;2.60;;
12846;SDS011;6492;48.128;8.320;2023-04-15T19:15:39;3.33;;;2.40;;
12846;SDS011;6492;48.128;8.320;2023-04-15T19:23:58;3.40;;;2.80;;
12846;SDS011;6492;48.128;8.320;2023-04-15T19:28:01;2.63;;;2.37;;
12846;SDS011;6492;48.128;8.320;2023-04-15T19:36:09;3.17;;;2.50;;
12846;SDS011;6492;48.128;8.320;2023-04-15T19:40:11;4.43;;;2.53;;
12846;SDS011;6492;48.128;8.320;2023-04-15T19:44:14;2.43;;;2.20;;
12846;SDS011;6492;48.128;8.320;2023-04-15T19:48:16;2.70;;;2.37;;
12846;SDS011;6492;48.128;8.320;2023-04-15T19:56:52;2.80;;;2.23;;
12846;SDS011;6492;48.128;8.320;2023-04-15T20:05:29;3.90;;;2.97;;
12846;SDS011;6492;48.128;8.320;2023-04-15T20:09:31;3.40;;;3.07;;
12846;SDS011;6492;48.128;8.320;2023-04-15T20:13:33;3.97;;;2.83;;
12846;SDS011;6492;48.128;8.320;2023-04-15T20:17:36;2.90;;;2.63;;
12846;SDS011;6492;48.128;8.320;2023-04-15T20:21:52;3.47;;;3.03;;
12846;SDS011;6492;48.128;8.320;2023-04-15T20:25:54;4.10;;;2.77;;
12846;SDS011;6492;48.128;8.320;2023-04-15T20:29:55;3.33;;;3.03;;
12846;SDS011;6492;48.128;8.320;2023-04-15T20:38:13;3.47;;;2.77;;
12846;SDS011;6492;48.128;8.320;2023-04-15T20:42:16;2.77;;;2.57;;
12846;SDS011;6492;48.128;8.320;2023-04-15T20:46:19;3.40;;;3.10;;
12846;SDS011;6492;48.128;8.320;2023-04-15T20:50:22;3.20;;;2.90;;
12846;SDS011;6492;48.128;8.320;2023-04-15T20:54:24;3.33;;;3.10;;
12846;SDS011;6492;48.128;8.320;2023-04-15T21:03:23;3.40;;;3.10;;
12846;SDS011;6492;48.128;8.320;2023-04-15T21:07:27;3.63;;;3.33;;
12846;SDS011;6492;48.128;8.320;2023-04-15T21:11:30;3.77;;;3.47;;
12846;SDS011;6492;48.128;8.320;2023-04-15T21:20:20;3.17;;;2.93;;
12846;SDS011;6492;48.128;8.320;2023-04-15T21:24:24;3.60;;;3.30;;
12846;SDS011;6492;48.128;8.320;2023-04-15T21:32:46;3.87;;;3.57;;
12846;SDS011;6492;48.128;8.320;2023-04-15T21:36:48;3.87;;;3.47;;
12846;SDS011;6492;48.128;8.320;2023-04-15T21:40:51;4.10;;;3.70;;
12846;SDS011;6492;48.128;8.320;2023-04-15T21:44:53;3.80;;;3.40;;
12846;SDS011;6492;48.128;8.320;2023-04-15T21:48:55;3.77;;;3.47;;
12846;SDS011;6492;48.128;8.320;2023-04-15T21:52:56;3.77;;;3.37;;
12846;SDS011;6492;48.128;8.320;2023-04-15T21:57:00;4.97;;;4.47;;
12846;SDS011;6492;48.128;8.320;2023-04-15T22:01:02;4.13;;;3.73;;
12846;SDS011;6492;48.128;8.320;2023-04-15T22:05:04;4.97;;;4.47;;
12846;SDS011;6492;48.128;8.320;2023-04-15T22:09:06;4.73;;;4.23;;
12846;SDS011;6492;48.128;8.320;2023-04-15T22:13:10;4.27;;;3.87;;
12846;SDS011;6492;48.128;8.320;2023-04-15T22:17:12;3.67;;;3.37;;
12846;SDS011;6492;48.128;8.320;2023-04-15T22:21:14;4.13;;;3.73;;
12846;SDS011;6492;48.128;8.320;2023-04-15T22:25:15;4.10;;;3.70;;
12846;SDS011;6492;48.128;8.320;2023-04-15T22:29:18;4.00;;;3.60;;
12846;SDS011;6492;48.128;8.320;2023-04-15T22:33:20;4.07;;;3.67;;
12846;SDS011;6492;48.128;8.320;2023-04-15T22:37:22;4.37;;;3.97;;
12846;SDS011;6492;48.128;8.320;2023-04-15T22:41:24;4.20;;;3.80;;
12846;SDS011;6492;48.128;8.320;2023-04-15T22:45:27;4.83;;;4.13;;
12846;SDS011;6492;48.128;8.320;2023-04-15T22:49:29;5.00;;;4.17;;
12846;SDS011;6492;48.128;8.320;2023-04-15T22:53:31;5.40;;;4.87;;
12846;SDS011;6492;48.128;8.320;2023-04-15T22:57:33;5.00;;;4.23;;
12846;SDS011;6492;48.128;8.320;2023-04-15T23:01:36;5.23;;;4.57;;
12846;SDS011;6492;48.128;8.320;2023-04-15T23:05:38;5.90;;;5.10;;
12846;SDS011;6492;48.128;8.320;2023-04-15T23:09:40;6.33;;;5.40;;
12846;SDS011;6492;48.128;8.320;2023-04-15T23:13:41;6.30;;;5.40;;
12846;SDS011;6492;48.128;8.320;2023-04-15T23:17:45;6.07;;;4.90;;
12846;SDS011;6492;48.128;8.320;2023-04-15T23:21:46;4.90;;;4.30;;
12846;SDS011;6492;48.128;8.320;2023-04-15T23:25:48;5.20;;;4.07;;
12846;SDS011;6492;48.128;8.320;2023-04-15T23:29:50;6.23;;;4.30;;
12846;SDS011;6492;48.128;8.320;2023-04-15T23:33:53;5.47;;;4.60;;
12846;SDS011;6492;48.128;8.320;2023-04-15T23:37:55;4.83;;;4.23;;
12846;SDS011;6492;48.128;8.320;2023-04-15T23:41:56;4.63;;;4.13;;
12846;SDS011;6492;48.128;8.320;2023-04-15T23:45:58;4.83;;;4.33;;
12846;SDS011;6492;48.128;8.320;2023-04-15T23:50:02;5.50;;;4.73;;
12846;SDS011;6492;48.128;8.320;2023-04-15T23:54:04;4.23;;;3.83;;
12846;SDS011;6492;48.128;8.320;2023-04-15T23:58:06;3.97;;;3.50;;
